SBKG/CPV METAR and TAF weather

Enter ICAO airport designator
Station Type Date Time Source
SBKG METAR 2019/08/19 01:00 UTC NOAA

SBKG 190100Z 08004KT CAVOK 20/19 Q1019


Station Type Date Time Source
SBKG Decoded METAR 2019/08/19 01:00 UTC NOAA

Station name not available
Aug 18, 2019 - 09:00 PM EDT / 2019.08.19 0100 UTC
Wind: from the E (080 degrees) at 5 MPH (4 KT):0
Visibility: greater than 7 mile(s):0
Temperature: 68 F (20 C)
Dew Point: 66 F (19 C)
Relative Humidity: 93%
Pressure (altimeter): 30.09 in. Hg (1019 hPa)
ob: SBKG 190100Z 08004KT CAVOK 20/19 Q1019
cycle: 1

Station Type Date Time Source
SBKG TAF 2019/08/19 00:33 UTC NOAA

TAF SBKG 182200Z 1900/1912 13005KT 8000 SHRA SCT005 BKN010 TN19/1908Z TX23/1912Z PROB30 1908/1911 16003KT 4000 BR FEW004 BKN010
RMK PAY

Example: see airport list